createdAt,value
2022-10-31T00:00:14.092Z,3.75
2022-10-31T00:02:40.722Z,3.33
2022-10-31T00:05:07.453Z,3.63
2022-10-31T00:07:33.939Z,3.22
2022-10-31T00:10:00.404Z,3.80
2022-10-31T00:12:27.151Z,3.72
2022-10-31T00:14:57.143Z,5.13
2022-10-31T00:17:24.010Z,2.85
2022-10-31T00:19:50.606Z,4.22
2022-10-31T00:22:17.083Z,3.03
2022-10-31T00:24:43.535Z,3.97
2022-10-31T00:27:10.299Z,3.85
2022-10-31T00:29:36.750Z,5.03
2022-10-31T00:32:03.229Z,4.00
2022-10-31T00:34:29.685Z,7.25
2022-10-31T00:36:56.213Z,5.90
2022-10-31T00:39:22.707Z,3.33
2022-10-31T00:41:49.184Z,2.80
2022-10-31T00:44:15.678Z,4.90
2022-10-31T00:46:42.138Z,5.03
2022-10-31T00:49:08.757Z,3.65
2022-10-31T00:51:35.247Z,4.00
2022-10-31T00:54:01.701Z,4.80
2022-10-31T00:56:28.170Z,7.35
2022-10-31T00:58:54.741Z,6.72
2022-10-31T01:01:21.506Z,2.20
2022-10-31T01:03:48.035Z,4.72
2022-10-31T01:06:14.621Z,3.90
2022-10-31T01:08:41.377Z,2.88
2022-10-31T01:11:09.237Z,7.93
2022-10-31T01:13:36.771Z,3.83
2022-10-31T01:16:04.357Z,4.47
2022-10-31T01:18:31.262Z,6.03
2022-10-31T01:20:58.637Z,2.28
2022-10-31T01:23:25.111Z,5.32
2022-10-31T01:25:59.339Z,2.92
2022-10-31T01:30:52.223Z,2.45
2022-10-31T01:33:18.726Z,3.85
2022-10-31T01:35:45.183Z,2.35
2022-10-31T01:38:11.651Z,3.33
2022-10-31T01:40:38.170Z,2.22
2022-10-31T01:43:04.641Z,6.68
2022-10-31T01:45:31.163Z,4.18
2022-10-31T01:47:57.973Z,5.07
2022-10-31T01:50:32.376Z,5.40
2022-10-31T01:52:59.126Z,3.67
2022-10-31T01:55:29.981Z,5.68
2022-10-31T01:57:59.886Z,5.15
2022-10-31T02:00:26.595Z,7.13
2022-10-31T02:02:53.068Z,2.55
2022-10-31T02:05:22.033Z,9.90
2022-10-31T02:07:54.988Z,5.68
2022-10-31T02:10:23.194Z,8.50
2022-10-31T02:12:51.373Z,5.78
2022-10-31T02:15:17.876Z,7.38
2022-10-31T02:17:44.377Z,4.18
2022-10-31T02:20:11.018Z,5.82
2022-10-31T02:22:41.865Z,2.72
2022-10-31T02:25:14.583Z,3.55
2022-10-31T02:27:40.998Z,4.05
2022-10-31T02:30:07.528Z,3.45
2022-10-31T02:32:39.959Z,5.20
2022-10-31T02:35:06.503Z,3.65
2022-10-31T02:37:38.928Z,6.13
2022-10-31T02:40:08.505Z,4.78
2022-10-31T02:42:40.127Z,6.80
2022-10-31T02:45:06.575Z,6.60
2022-10-31T02:47:38.086Z,4.82
2022-10-31T02:50:15.788Z,5.78
2022-10-31T02:52:42.266Z,5.40
2022-10-31T02:55:23.941Z,4.55
2022-10-31T02:57:51.995Z,3.30
2022-10-31T03:00:18.509Z,5.78
2022-10-31T03:02:45.047Z,7.90
2022-10-31T03:05:30.128Z,9.63
2022-10-31T03:08:16.950Z,9.88
2022-10-31T03:10:43.445Z,3.72
2022-10-31T03:15:57.489Z,5.60
2022-10-31T03:18:50.312Z,4.68
2022-10-31T03:21:23.287Z,6.88
2022-10-31T03:23:51.690Z,5.00
2022-10-31T03:26:18.818Z,5.13
2022-10-31T03:28:47.469Z,5.43
2022-10-31T03:31:17.112Z,3.00
2022-10-31T03:33:44.055Z,7.35
2022-10-31T03:36:11.818Z,6.18
2022-10-31T03:38:39.741Z,5.78
2022-10-31T03:41:11.554Z,9.10
2022-10-31T03:43:41.721Z,5.55
2022-10-31T03:46:08.185Z,5.18
2022-10-31T03:48:34.943Z,6.30
2022-10-31T03:51:11.974Z,4.60
2022-10-31T03:53:41.802Z,5.97
2022-10-31T03:56:11.164Z,9.25
2022-10-31T03:58:55.176Z,6.43
2022-10-31T04:01:22.969Z,2.70
2022-10-31T04:03:49.948Z,5.18
2022-10-31T04:06:18.089Z,4.15
2022-10-31T04:08:48.137Z,5.47
2022-10-31T04:11:16.283Z,6.97
2022-10-31T04:13:45.088Z,9.63
2022-10-31T04:16:15.974Z,9.68
2022-10-31T04:18:43.838Z,8.70
2022-10-31T04:21:10.287Z,9.30
2022-10-31T04:23:37.281Z,8.85
2022-10-31T04:26:03.952Z,4.97
2022-10-31T04:28:30.507Z,6.10
2022-10-31T04:30:56.969Z,7.07
2022-10-31T04:33:23.532Z,8.60
2022-10-31T04:35:50.058Z,4.53
2022-10-31T04:38:16.497Z,9.93
2022-10-31T04:40:43.005Z,6.43
2022-10-31T04:43:09.588Z,4.55
2022-10-31T04:45:36.179Z,3.42
2022-10-31T04:48:03.023Z,6.97
2022-10-31T04:50:29.695Z,10.15
2022-10-31T04:52:56.180Z,4.75
2022-10-31T04:55:22.624Z,8.43
2022-10-31T04:57:50.054Z,5.40
2022-10-31T05:00:18.245Z,6.60
2022-10-31T05:02:48.633Z,5.00
2022-10-31T05:05:16.092Z,4.57
2022-10-31T05:07:43.377Z,4.50
2022-10-31T05:10:13.909Z,7.18
2022-10-31T05:12:47.258Z,7.45
2022-10-31T05:15:13.798Z,9.80
2022-10-31T05:17:40.340Z,6.85
2022-10-31T05:20:08.316Z,8.63
2022-10-31T05:22:34.841Z,8.02
2022-10-31T05:25:01.309Z,9.43
2022-10-31T05:27:27.784Z,4.80
2022-10-31T05:29:54.243Z,8.20
2022-10-31T05:32:20.737Z,6.25
2022-10-31T05:34:47.183Z,4.63
2022-10-31T05:37:13.622Z,13.77
2022-10-31T05:39:40.083Z,8.27
2022-10-31T05:42:06.518Z,16.10
2022-10-31T05:44:33.008Z,5.50
2022-10-31T05:46:59.446Z,11.75
2022-10-31T05:49:25.937Z,11.18
2022-10-31T05:51:52.397Z,9.40
2022-10-31T05:54:18.833Z,12.48
2022-10-31T05:56:45.326Z,8.55
2022-10-31T05:59:11.818Z,13.13
2022-10-31T06:01:38.371Z,10.93
2022-10-31T06:04:04.958Z,11.90
2022-10-31T06:06:31.438Z,7.97
2022-10-31T06:08:57.921Z,11.95
2022-10-31T06:11:24.545Z,13.48
2022-10-31T06:13:51.022Z,10.48
2022-10-31T06:16:17.501Z,8.63
2022-10-31T06:18:43.923Z,10.73
2022-10-31T06:21:12.464Z,10.50
2022-10-31T06:23:41.441Z,14.50
2022-10-31T06:26:07.927Z,16.95
2022-10-31T06:28:34.378Z,7.82
2022-10-31T06:31:00.863Z,11.85
2022-10-31T06:33:27.352Z,9.30
2022-10-31T06:35:53.819Z,14.13
2022-10-31T06:38:20.289Z,16.25
2022-10-31T06:40:46.753Z,22.00
2022-10-31T06:43:13.819Z,16.02
2022-10-31T06:45:40.303Z,17.05
2022-10-31T06:48:22.602Z,13.77
2022-10-31T06:50:49.397Z,16.00
2022-10-31T06:53:15.953Z,15.57
2022-10-31T06:55:43.065Z,19.90
2022-10-31T06:58:10.618Z,22.50
2022-10-31T07:00:37.417Z,15.40
2022-10-31T07:03:05.264Z,15.98
2022-10-31T07:05:32.147Z,18.55
2022-10-31T07:08:00.115Z,16.75
2022-10-31T07:10:27.562Z,13.27
2022-10-31T07:12:57.837Z,18.27
2022-10-31T07:15:28.472Z,15.48
2022-10-31T07:17:55.058Z,11.23
2022-10-31T07:20:21.552Z,19.15
2022-10-31T07:22:50.659Z,14.15
2022-10-31T07:25:17.402Z,9.95
2022-10-31T07:27:44.125Z,11.90
2022-10-31T07:30:11.505Z,7.43
2022-10-31T07:32:48.314Z,10.25
2022-10-31T07:35:16.096Z,7.45
2022-10-31T07:37:42.598Z,11.18
2022-10-31T07:40:09.963Z,7.47
2022-10-31T07:42:40.221Z,18.67
2022-10-31T07:45:07.428Z,11.95
2022-10-31T07:48:00.372Z,13.88
2022-10-31T07:50:29.239Z,8.35
2022-10-31T07:53:06.272Z,12.55
2022-10-31T07:55:33.263Z,20.63
2022-10-31T07:58:04.346Z,14.68
2022-10-31T08:00:31.796Z,12.18
2022-10-31T08:02:59.555Z,11.40
2022-10-31T08:05:26.394Z,13.85
2022-10-31T08:07:52.913Z,8.18
2022-10-31T08:10:19.504Z,16.48
2022-10-31T08:12:46.113Z,11.35
2022-10-31T08:15:12.575Z,8.88
2022-10-31T08:17:39.411Z,11.57
2022-10-31T08:20:06.674Z,10.95
2022-10-31T08:22:33.168Z,12.68
2022-10-31T08:24:59.702Z,9.45
2022-10-31T08:27:26.165Z,10.88
2022-10-31T08:29:52.641Z,9.07
2022-10-31T08:32:19.096Z,9.95
2022-10-31T08:34:45.611Z,13.68
2022-10-31T08:37:12.119Z,10.80
2022-10-31T08:39:38.594Z,7.03
2022-10-31T08:42:05.073Z,13.65
2022-10-31T08:44:31.525Z,11.77
2022-10-31T08:46:58.002Z,9.88
2022-10-31T08:49:24.441Z,15.27
2022-10-31T08:51:51.400Z,12.55
2022-10-31T08:54:17.893Z,14.27
2022-10-31T08:56:44.413Z,13.77
2022-10-31T08:59:10.990Z,15.18
2022-10-31T09:01:37.806Z,10.82
2022-10-31T09:04:04.399Z,11.27
2022-10-31T09:06:31.014Z,14.85
2022-10-31T09:08:57.657Z,17.80
2022-10-31T09:11:24.193Z,14.18
2022-10-31T09:13:50.949Z,11.02
2022-10-31T09:16:24.360Z,15.32
2022-10-31T09:18:53.721Z,17.67
2022-10-31T09:21:20.638Z,11.57
2022-10-31T09:23:47.337Z,19.92
2022-10-31T09:26:13.957Z,9.93
2022-10-31T09:28:40.557Z,13.73
2022-10-31T09:31:07.085Z,17.70
2022-10-31T09:33:33.862Z,23.73
2022-10-31T09:36:00.768Z,15.50
2022-10-31T09:38:27.423Z,18.02
2022-10-31T09:40:56.889Z,16.02
2022-10-31T09:43:32.425Z,15.77
2022-10-31T09:46:16.376Z,13.73
2022-10-31T09:48:51.714Z,15.77
2022-10-31T09:51:20.963Z,11.15
2022-10-31T09:53:50.205Z,13.95
2022-10-31T09:56:18.778Z,18.40
2022-10-31T09:58:49.617Z,13.43
2022-10-31T10:01:34.846Z,15.82
2022-10-31T10:04:04.141Z,13.05
2022-10-31T10:06:33.895Z,15.68
2022-10-31T10:09:00.467Z,22.30
2022-10-31T10:11:39.109Z,24.20
2022-10-31T10:14:14.848Z,11.88
2022-10-31T10:16:44.308Z,11.13
2022-10-31T10:19:31.078Z,14.02
2022-10-31T10:22:00.403Z,13.27
2022-10-31T10:24:45.633Z,15.63
2022-10-31T10:27:24.446Z,12.07
2022-10-31T10:30:01.760Z,13.73
2022-10-31T10:32:29.357Z,15.50
2022-10-31T10:35:00.096Z,12.68
2022-10-31T10:37:31.322Z,15.48
2022-10-31T10:40:04.049Z,12.13
2022-10-31T10:42:48.941Z,14.55
2022-10-31T10:45:35.593Z,12.75
2022-10-31T10:48:13.294Z,14.05
2022-10-31T10:50:42.568Z,11.60
2022-10-31T10:53:32.934Z,18.20
2022-10-31T10:56:12.651Z,15.10
2022-10-31T10:58:40.371Z,17.23
2022-10-31T11:03:47.725Z,28.48
2022-10-31T11:06:18.236Z,8.95
2022-10-31T11:08:44.784Z,10.70
2022-10-31T11:11:17.481Z,10.73
2022-10-31T11:13:45.680Z,14.30
2022-10-31T11:16:27.654Z,15.10
2022-10-31T11:18:54.520Z,14.05
2022-10-31T11:21:29.368Z,16.23
2022-10-31T11:24:05.060Z,18.33
2022-10-31T11:26:31.604Z,13.88
2022-10-31T11:28:59.673Z,16.70
2022-10-31T11:31:26.869Z,18.90
2022-10-31T11:34:13.541Z,18.70
2022-10-31T11:36:40.578Z,13.60
2022-10-31T11:39:13.972Z,15.35
2022-10-31T11:41:42.325Z,18.50
2022-10-31T11:44:29.230Z,23.52
2022-10-31T11:47:00.130Z,16.52
2022-10-31T11:49:30.652Z,19.52
2022-10-31T11:51:58.393Z,13.10
2022-10-31T11:54:26.934Z,15.10
2022-10-31T11:56:53.861Z,20.92
2022-10-31T11:59:30.616Z,13.35
2022-10-31T12:01:58.342Z,24.35
2022-10-31T12:04:45.213Z,15.45
2022-10-31T12:07:11.903Z,20.10
2022-10-31T12:09:39.461Z,25.13
2022-10-31T12:12:15.029Z,19.02
2022-10-31T12:14:44.668Z,14.38
2022-10-31T12:17:14.152Z,14.55
2022-10-31T12:19:48.298Z,10.40
2022-10-31T12:22:15.599Z,30.98
2022-10-31T12:24:51.127Z,18.48
2022-10-31T12:27:36.367Z,11.43
2022-10-31T12:30:15.183Z,10.27
2022-10-31T12:32:50.859Z,12.63
2022-10-31T12:35:36.340Z,21.70
2022-10-31T12:38:03.221Z,20.90
2022-10-31T12:40:42.584Z,25.55
2022-10-31T12:43:35.901Z,16.27
2022-10-31T12:46:03.221Z,22.00
2022-10-31T12:48:43.759Z,17.15
2022-10-31T12:51:13.357Z,19.02
2022-10-31T12:53:49.011Z,16.00
2022-10-31T12:56:15.493Z,18.83
2022-10-31T12:58:48.194Z,15.90
2022-10-31T13:01:32.900Z,20.10
2022-10-31T13:04:06.095Z,21.38
2022-10-31T13:06:45.015Z,15.02
2022-10-31T13:09:14.617Z,20.40
2022-10-31T13:11:46.847Z,22.98
2022-10-31T13:14:13.520Z,17.20
2022-10-31T13:16:42.424Z,17.60
2022-10-31T13:19:17.878Z,19.33
2022-10-31T13:21:52.639Z,19.27
2022-10-31T13:24:21.763Z,15.98
2022-10-31T13:26:53.267Z,14.10
2022-10-31T13:29:26.897Z,14.60
2022-10-31T13:31:56.434Z,22.23
2022-10-31T13:34:40.192Z,17.13
2022-10-31T13:37:14.023Z,25.80
2022-10-31T13:40:07.030Z,15.65
2022-10-31T13:42:33.530Z,15.05
2022-10-31T13:45:16.355Z,21.33
2022-10-31T13:47:44.061Z,22.90
2022-10-31T13:50:22.356Z,25.95
2022-10-31T13:52:48.871Z,22.58
2022-10-31T13:55:34.177Z,16.67
2022-10-31T13:58:01.111Z,22.65
2022-10-31T14:00:27.918Z,19.10
2022-10-31T14:02:56.809Z,21.67
2022-10-31T14:05:28.522Z,17.17
2022-10-31T14:07:55.829Z,23.77
2022-10-31T14:10:22.619Z,19.30
2022-10-31T14:12:49.744Z,16.70
2022-10-31T14:15:21.360Z,22.63
2022-10-31T14:17:47.811Z,18.02
2022-10-31T14:20:15.044Z,20.20
2022-10-31T14:22:43.093Z,16.83
2022-10-31T14:25:29.214Z,20.77
2022-10-31T14:27:55.979Z,25.45
2022-10-31T14:30:26.432Z,19.98
2022-10-31T14:32:54.712Z,24.35
2022-10-31T14:35:21.862Z,23.15
2022-10-31T14:40:41.263Z,18.35
2022-10-31T14:43:25.393Z,21.85
2022-10-31T14:45:55.761Z,19.75
2022-10-31T14:48:31.546Z,16.77
2022-10-31T14:50:59.585Z,31.73
2022-10-31T14:53:37.151Z,17.17
2022-10-31T14:56:16.365Z,24.27
2022-10-31T14:58:45.249Z,16.00
2022-10-31T15:01:26.594Z,19.13
2022-10-31T15:04:21.863Z,18.58
2022-10-31T15:06:43.001Z,19.25
2022-10-31T15:09:25.903Z,20.08
2022-10-31T15:11:54.790Z,23.13
2022-10-31T15:14:26.229Z,16.70
2022-10-31T15:16:53.224Z,21.77
2022-10-31T15:19:30.484Z,19.95
2022-10-31T15:21:57.916Z,24.63
2022-10-31T15:24:26.533Z,19.15
2022-10-31T15:26:53.741Z,19.58
2022-10-31T15:29:24.313Z,25.08
2022-10-31T15:31:54.895Z,24.63
2022-10-31T15:34:41.632Z,28.75
2022-10-31T15:37:15.809Z,17.17
2022-10-31T15:39:42.946Z,26.90
2022-10-31T15:42:28.109Z,22.08
2022-10-31T15:45:06.858Z,21.33
2022-10-31T15:47:34.158Z,19.30
2022-10-31T15:50:01.631Z,24.58
2022-10-31T15:52:41.013Z,23.98
2022-10-31T15:55:10.254Z,18.77
2022-10-31T15:57:41.457Z,21.00
2022-10-31T16:00:08.303Z,19.70
2022-10-31T16:02:35.304Z,21.17
2022-10-31T16:05:02.465Z,22.08
2022-10-31T16:07:30.103Z,23.42
2022-10-31T16:10:01.181Z,31.42
2022-10-31T16:12:33.155Z,22.30
2022-10-31T16:14:59.753Z,25.60
2022-10-31T16:17:27.517Z,16.83
2022-10-31T16:19:59.094Z,24.42
2022-10-31T16:22:27.245Z,29.75
2022-10-31T16:25:00.984Z,22.92
2022-10-31T16:27:29.880Z,30.77
2022-10-31T16:29:57.618Z,20.63
2022-10-31T16:32:33.885Z,15.23
2022-10-31T16:35:01.683Z,18.50
2022-10-31T16:37:28.278Z,31.60
2022-10-31T16:39:54.809Z,20.52
2022-10-31T16:42:21.355Z,20.58
2022-10-31T16:44:48.609Z,24.92
2022-10-31T16:47:16.789Z,24.40
2022-10-31T16:49:43.842Z,22.15
2022-10-31T16:52:10.478Z,20.52
2022-10-31T16:54:36.947Z,20.67
2022-10-31T16:57:04.072Z,22.63
2022-10-31T16:59:31.152Z,20.55
2022-10-31T17:01:57.690Z,21.10
2022-10-31T17:04:24.623Z,29.67
2022-10-31T17:06:51.118Z,23.00
2022-10-31T17:09:17.617Z,22.88
2022-10-31T17:11:49.778Z,18.48
2022-10-31T17:14:17.484Z,26.30
2022-10-31T17:16:44.063Z,23.33
2022-10-31T17:19:11.886Z,18.30
2022-10-31T17:21:38.751Z,21.55
2022-10-31T17:24:05.431Z,19.48
2022-10-31T17:26:31.941Z,16.80
2022-10-31T17:29:00.123Z,21.13
2022-10-31T17:31:30.396Z,18.17
2022-10-31T17:34:02.329Z,21.83
2022-10-31T17:36:30.015Z,22.30
2022-10-31T17:38:56.491Z,20.20
2022-10-31T17:41:22.980Z,15.35
2022-10-31T17:43:49.512Z,18.33
2022-10-31T17:46:16.120Z,22.20
2022-10-31T17:48:42.651Z,25.23
2022-10-31T17:51:09.219Z,25.70
2022-10-31T17:53:35.718Z,17.67
2022-10-31T17:56:03.903Z,19.80
2022-10-31T17:58:30.797Z,20.63
2022-10-31T18:00:57.891Z,24.80
2022-10-31T18:03:24.735Z,19.27
2022-10-31T18:05:58.617Z,38.17
2022-10-31T18:10:51.669Z,22.92
2022-10-31T18:13:18.181Z,19.08
2022-10-31T18:15:44.636Z,21.83
2022-10-31T18:18:11.106Z,15.63
2022-10-31T18:20:37.647Z,24.58
2022-10-31T18:23:04.549Z,22.00
2022-10-31T18:25:31.046Z,17.80
2022-10-31T18:27:57.607Z,19.90
2022-10-31T18:30:24.126Z,29.33
2022-10-31T18:32:51.436Z,24.60
2022-10-31T18:35:18.418Z,22.52
2022-10-31T18:37:44.886Z,28.48
2022-10-31T18:40:11.471Z,33.13
2022-10-31T18:42:38.573Z,29.42
2022-10-31T18:45:11.287Z,19.40
2022-10-31T18:47:43.625Z,20.20
2022-10-31T18:50:10.437Z,20.63
2022-10-31T18:52:36.953Z,28.88
2022-10-31T18:55:03.798Z,18.23
2022-10-31T18:57:30.304Z,25.33
2022-10-31T18:59:56.765Z,27.75
2022-10-31T19:02:23.369Z,18.10
2022-10-31T19:04:49.909Z,29.88
2022-10-31T19:07:16.547Z,25.63
2022-10-31T19:09:43.273Z,27.75
2022-10-31T19:12:09.885Z,17.48
2022-10-31T19:14:36.349Z,23.65
2022-10-31T19:17:02.936Z,23.77
2022-10-31T19:19:29.654Z,19.33
2022-10-31T19:21:56.893Z,18.77
2022-10-31T19:24:25.294Z,21.50
2022-10-31T19:26:53.606Z,20.63
2022-10-31T19:29:20.247Z,15.68
2022-10-31T19:31:48.274Z,25.20
2022-10-31T19:34:14.765Z,21.10
2022-10-31T19:36:41.356Z,20.05
2022-10-31T19:39:07.788Z,31.20
2022-10-31T19:41:34.322Z,109.32
2022-10-31T19:44:01.116Z,128.60
2022-10-31T19:46:48.269Z,55.47
2022-10-31T19:49:14.195Z,46.13
2022-10-31T19:51:40.751Z,39.35
2022-10-31T19:54:07.305Z,145.48
2022-10-31T19:56:33.833Z,34.40
2022-10-31T19:59:00.276Z,38.13
2022-10-31T20:01:26.998Z,30.83
2022-10-31T20:03:53.603Z,27.65
2022-10-31T20:06:27.922Z,30.02
2022-10-31T20:08:56.172Z,22.63
2022-10-31T20:11:26.404Z,27.20
2022-10-31T20:13:54.912Z,24.52
2022-10-31T20:16:21.431Z,22.60
2022-10-31T20:18:48.086Z,25.27
2022-10-31T20:21:15.942Z,20.67
2022-10-31T20:23:42.451Z,28.33
2022-10-31T20:26:10.303Z,23.33
2022-10-31T20:28:40.096Z,23.75
2022-10-31T20:31:11.317Z,19.13
2022-10-31T20:33:38.405Z,24.83
2022-10-31T20:36:05.663Z,21.73
2022-10-31T20:38:32.315Z,24.17
2022-10-31T20:41:02.551Z,26.20
2022-10-31T20:43:31.801Z,21.40
2022-10-31T20:46:11.202Z,47.95
2022-10-31T20:48:37.813Z,27.23
2022-10-31T20:51:06.569Z,26.60
2022-10-31T20:53:33.360Z,30.38
2022-10-31T20:56:07.108Z,25.00
2022-10-31T20:58:34.483Z,21.58
2022-10-31T21:01:01.112Z,26.30
2022-10-31T21:03:27.710Z,224.93
2022-10-31T21:05:54.171Z,225.60
2022-10-31T21:08:20.641Z,58.95
2022-10-31T21:10:47.219Z,45.47
2022-10-31T21:13:13.669Z,44.17
2022-10-31T21:15:40.258Z,37.40
2022-10-31T21:18:06.744Z,32.38
2022-10-31T21:20:33.191Z,25.35
2022-10-31T21:23:00.084Z,29.33
2022-10-31T21:25:27.052Z,23.88
2022-10-31T21:27:53.522Z,21.60
2022-10-31T21:30:20.021Z,27.95
2022-10-31T21:32:46.522Z,37.42
2022-10-31T21:35:13.004Z,33.08
2022-10-31T21:37:39.446Z,19.10
2022-10-31T21:40:06.325Z,27.50
2022-10-31T21:42:32.802Z,23.60
2022-10-31T21:44:59.386Z,25.70
2022-10-31T21:47:26.097Z,21.83
2022-10-31T21:49:52.566Z,29.65
2022-10-31T21:52:19.050Z,25.05
2022-10-31T21:54:45.508Z,22.67
2022-10-31T21:57:12.102Z,21.10
2022-10-31T21:59:38.773Z,19.35
2022-10-31T22:02:05.394Z,22.05
2022-10-31T22:04:33.266Z,23.98
2022-10-31T22:06:59.788Z,23.55
2022-10-31T22:09:26.314Z,18.58
2022-10-31T22:11:52.814Z,28.17
2022-10-31T22:14:19.290Z,29.05
2022-10-31T22:16:45.810Z,20.65
2022-10-31T22:19:13.276Z,23.13
2022-10-31T22:21:43.884Z,24.10
2022-10-31T22:24:10.847Z,17.73
2022-10-31T22:26:37.733Z,22.58
2022-10-31T22:29:05.523Z,28.25
2022-10-31T22:31:32.501Z,23.23
2022-10-31T22:33:59.009Z,18.17
2022-10-31T22:36:29.570Z,14.50
2022-10-31T22:38:56.181Z,18.23
2022-10-31T22:41:24.251Z,20.10
2022-10-31T22:43:50.980Z,25.60
2022-10-31T22:46:18.681Z,22.45
2022-10-31T22:48:49.477Z,16.92
2022-10-31T22:51:18.018Z,16.38
2022-10-31T22:53:45.089Z,16.70
2022-10-31T22:56:12.914Z,20.13
2022-10-31T22:58:39.483Z,19.05
2022-10-31T23:01:07.247Z,20.67
2022-10-31T23:03:34.824Z,21.50
2022-10-31T23:06:02.208Z,14.90
2022-10-31T23:08:29.700Z,28.88
2022-10-31T23:10:56.456Z,24.52
2022-10-31T23:13:41.556Z,16.73
2022-10-31T23:16:09.069Z,21.75
2022-10-31T23:18:49.663Z,17.15
2022-10-31T23:21:32.788Z,20.90
2022-10-31T23:23:59.375Z,21.65
2022-10-31T23:26:44.537Z,21.58
2022-10-31T23:29:11.067Z,16.20
2022-10-31T23:31:37.672Z,22.02
2022-10-31T23:34:04.168Z,19.50
2022-10-31T23:36:30.802Z,21.67
2022-10-31T23:38:57.287Z,21.05
2022-10-31T23:41:23.813Z,20.40
2022-10-31T23:43:50.339Z,18.38
2022-10-31T23:48:49.612Z,21.17
2022-10-31T23:51:16.206Z,23.95
2022-10-31T23:53:46.756Z,17.15
2022-10-31T23:56:15.841Z,19.27
2022-10-31T23:58:42.667Z,22.25
